createdAt,value
2023-01-08T00:00:30.579Z,312.65
2023-01-08T00:03:01.952Z,297.40
2023-01-08T00:05:32.290Z,287.08
2023-01-08T00:08:05.128Z,277.95
2023-01-08T00:10:37.300Z,223.73
2023-01-08T00:13:08.280Z,212.52
2023-01-08T00:15:38.638Z,346.52
2023-01-08T00:18:09.156Z,228.57
2023-01-08T00:20:39.154Z,204.05
2023-01-08T00:23:13.915Z,276.55
2023-01-08T00:25:44.272Z,335.65
2023-01-08T00:28:15.228Z,299.48
2023-01-08T00:30:47.660Z,198.70
2023-01-08T00:33:18.232Z,193.85
2023-01-08T00:35:48.465Z,166.70
2023-01-08T00:38:21.308Z,204.35
2023-01-08T00:40:54.332Z,173.60
2023-01-08T00:43:24.463Z,288.70
2023-01-08T00:45:55.532Z,206.13
2023-01-08T00:48:26.203Z,199.38
2023-01-08T00:50:58.572Z,283.17
2023-01-08T00:53:31.401Z,200.18
2023-01-08T00:56:05.255Z,181.23
2023-01-08T01:01:12.308Z,217.98
2023-01-08T01:03:42.744Z,166.75
2023-01-08T01:06:15.156Z,150.68
2023-01-08T01:08:48.157Z,168.43
2023-01-08T01:11:22.814Z,149.97
2023-01-08T01:13:53.085Z,151.50
2023-01-08T01:16:23.579Z,204.30
2023-01-08T01:18:55.121Z,195.75
2023-01-08T01:21:27.102Z,161.00
2023-01-08T01:24:01.780Z,214.25
2023-01-08T01:26:31.986Z,177.95
2023-01-08T01:29:03.128Z,181.05
2023-01-08T01:31:34.957Z,151.10
2023-01-08T01:34:04.986Z,199.85
2023-01-08T01:36:35.065Z,167.57
2023-01-08T01:39:08.315Z,180.73
2023-01-08T01:41:42.421Z,165.50
2023-01-08T01:44:38.885Z,247.98
2023-01-08T01:47:16.130Z,264.27
2023-01-08T01:49:52.907Z,191.90
2023-01-08T01:52:24.090Z,430.70
2023-01-08T01:54:57.424Z,189.65
2023-01-08T01:57:27.745Z,256.48
2023-01-08T02:00:00.398Z,520.85
2023-01-08T02:02:32.746Z,361.58
2023-01-08T02:05:03.495Z,358.98
2023-01-08T02:07:42.022Z,388.58
2023-01-08T02:10:22.238Z,396.25
2023-01-08T02:13:01.746Z,225.95
2023-01-08T02:15:42.192Z,231.07
2023-01-08T02:18:15.463Z,246.48
2023-01-08T02:20:49.600Z,273.83
2023-01-08T02:23:29.654Z,316.77
2023-01-08T02:26:25.088Z,404.90
2023-01-08T02:29:00.855Z,393.60
2023-01-08T02:31:33.621Z,263.55
2023-01-08T02:34:03.982Z,544.33
2023-01-08T02:36:40.049Z,446.52
2023-01-08T02:39:17.843Z,184.15
2023-01-08T02:42:00.015Z,237.18
2023-01-08T02:44:45.040Z,350.20
2023-01-08T02:47:26.905Z,212.18
2023-01-08T02:50:03.572Z,280.17
2023-01-08T02:52:38.079Z,191.60
2023-01-08T02:55:10.521Z,321.48
2023-01-08T02:57:46.362Z,161.68
2023-01-08T03:00:17.791Z,152.27
2023-01-08T03:02:50.562Z,165.43
2023-01-08T03:05:27.139Z,177.10
2023-01-08T03:07:59.029Z,199.32
2023-01-08T03:10:33.636Z,197.52
2023-01-08T03:13:11.940Z,169.95
2023-01-08T03:15:50.047Z,155.85
2023-01-08T03:18:24.324Z,160.45
2023-01-08T03:20:55.350Z,160.48
2023-01-08T03:23:27.470Z,157.15
2023-01-08T03:25:57.620Z,159.20
2023-01-08T03:28:37.546Z,142.57
2023-01-08T03:31:10.027Z,141.40
2023-01-08T03:33:42.302Z,152.75
2023-01-08T03:36:17.319Z,149.52
2023-01-08T03:38:54.084Z,143.73
2023-01-08T03:41:27.977Z,145.65
2023-01-08T03:46:34.634Z,139.48
2023-01-08T03:49:07.496Z,130.38
2023-01-08T03:51:44.096Z,137.95
2023-01-08T03:54:17.877Z,146.20
2023-01-08T03:56:48.587Z,140.93
2023-01-08T03:59:21.620Z,146.80
2023-01-08T04:01:52.047Z,142.75
2023-01-08T04:04:23.193Z,139.52
2023-01-08T04:06:55.847Z,147.45
2023-01-08T04:09:26.154Z,144.73
2023-01-08T04:11:56.649Z,136.57
2023-01-08T04:14:29.453Z,153.07
2023-01-08T04:16:59.870Z,139.05
2023-01-08T04:19:30.010Z,151.35
2023-01-08T04:22:00.335Z,140.57
2023-01-08T04:24:30.419Z,139.65
2023-01-08T04:27:03.095Z,150.10
2023-01-08T04:29:36.150Z,147.05
2023-01-08T04:32:06.460Z,139.48
2023-01-08T04:34:36.547Z,133.00
2023-01-08T04:37:06.839Z,139.52
2023-01-08T04:39:36.960Z,148.45
2023-01-08T04:42:07.212Z,145.18
2023-01-08T04:44:42.622Z,132.60
2023-01-08T04:47:12.946Z,137.50
2023-01-08T04:49:45.493Z,143.05
2023-01-08T04:52:16.321Z,130.70
2023-01-08T04:54:46.551Z,123.18
2023-01-08T04:57:16.836Z,131.82
2023-01-08T04:59:50.390Z,127.35
2023-01-08T05:02:24.970Z,134.25
2023-01-08T05:04:55.635Z,129.07
2023-01-08T05:07:28.257Z,122.78
2023-01-08T05:09:58.498Z,129.15
2023-01-08T05:12:28.651Z,171.13
2023-01-08T05:15:01.738Z,144.60
2023-01-08T05:17:32.056Z,131.48
2023-01-08T05:20:02.316Z,132.05
2023-01-08T05:22:32.772Z,137.05
2023-01-08T05:25:03.021Z,137.98
2023-01-08T05:27:33.544Z,129.18
2023-01-08T05:30:06.883Z,126.35
2023-01-08T05:32:36.960Z,125.70
2023-01-08T05:35:07.783Z,126.60
2023-01-08T05:37:38.820Z,142.75
2023-01-08T05:40:12.875Z,130.35
2023-01-08T05:42:43.264Z,131.88
2023-01-08T05:45:17.102Z,132.43
2023-01-08T05:50:17.541Z,114.18
2023-01-08T05:52:47.951Z,127.40
2023-01-08T05:55:18.441Z,122.25
2023-01-08T05:57:48.584Z,119.30
2023-01-08T06:00:21.881Z,120.60
2023-01-08T06:02:52.421Z,138.73
2023-01-08T06:05:22.491Z,140.57
2023-01-08T06:07:52.964Z,142.80
2023-01-08T06:10:23.062Z,136.68
2023-01-08T06:12:53.542Z,132.15
2023-01-08T06:15:27.726Z,141.65
2023-01-08T06:17:57.802Z,133.98
2023-01-08T06:20:28.347Z,144.02
2023-01-08T06:23:00.573Z,123.28
2023-01-08T06:25:31.676Z,134.07
2023-01-08T06:28:04.827Z,136.52
2023-01-08T06:30:40.777Z,127.97
2023-01-08T06:33:11.601Z,128.50
2023-01-08T06:35:41.934Z,329.95
2023-01-08T06:38:12.313Z,185.30
2023-01-08T06:40:42.596Z,129.98
2023-01-08T06:43:12.903Z,123.05
2023-01-08T06:45:46.297Z,125.30
2023-01-08T06:48:16.804Z,125.63
2023-01-08T06:50:46.844Z,124.40
2023-01-08T06:53:17.059Z,116.90
2023-01-08T06:55:47.572Z,113.60
2023-01-08T06:58:18.351Z,114.40
2023-01-08T07:00:52.698Z,106.00
2023-01-08T07:03:22.859Z,115.38
2023-01-08T07:05:53.238Z,103.38
2023-01-08T07:08:23.582Z,97.50
2023-01-08T07:10:53.793Z,162.98
2023-01-08T07:13:24.504Z,103.78
2023-01-08T07:15:57.345Z,88.53
2023-01-08T07:18:27.438Z,89.47
2023-01-08T07:20:57.531Z,90.00
2023-01-08T07:23:27.679Z,84.50
2023-01-08T07:25:57.976Z,79.50
2023-01-08T07:28:28.100Z,77.72
2023-01-08T07:31:01.887Z,78.75
2023-01-08T07:36:02.084Z,70.47
2023-01-08T07:38:32.178Z,73.13
2023-01-08T07:41:02.298Z,71.20
2023-01-08T07:43:32.821Z,78.65
2023-01-08T07:46:08.660Z,76.28
2023-01-08T07:48:39.287Z,73.00
2023-01-08T07:51:11.531Z,70.57
2023-01-08T07:53:41.866Z,64.45
2023-01-08T07:56:13.947Z,66.68
2023-01-08T07:58:44.338Z,61.70
2023-01-08T08:01:17.780Z,61.85
2023-01-08T08:03:48.233Z,77.55
2023-01-08T08:06:19.577Z,61.63
2023-01-08T08:08:49.654Z,60.78
2023-01-08T08:11:21.522Z,56.58
2023-01-08T08:13:55.960Z,54.75
2023-01-08T08:16:29.361Z,59.83
2023-01-08T08:19:02.123Z,54.35
2023-01-08T08:21:33.004Z,58.13
2023-01-08T08:24:03.493Z,55.42
2023-01-08T08:26:33.851Z,49.13
2023-01-08T08:29:04.007Z,55.05
2023-01-08T08:31:37.246Z,51.58
2023-01-08T08:34:08.193Z,48.50
2023-01-08T08:36:38.494Z,49.53
2023-01-08T08:39:10.328Z,42.22
2023-01-08T08:41:40.377Z,40.70
2023-01-08T08:44:10.705Z,47.05
2023-01-08T08:46:43.761Z,40.78
2023-01-08T08:49:14.179Z,46.03
2023-01-08T08:51:44.560Z,38.05
2023-01-08T08:54:15.327Z,40.67
2023-01-08T08:56:45.492Z,43.63
2023-01-08T08:59:16.013Z,34.13
2023-01-08T09:01:49.352Z,37.08
2023-01-08T09:04:21.549Z,42.55
2023-01-08T09:06:52.516Z,32.58
2023-01-08T09:09:24.949Z,42.60
2023-01-08T09:11:57.908Z,43.97
2023-01-08T09:14:28.734Z,45.70
2023-01-08T09:17:03.832Z,42.50
2023-01-08T09:19:36.284Z,37.17
2023-01-08T09:22:06.557Z,39.90
2023-01-08T09:24:41.992Z,36.42
2023-01-08T09:27:17.741Z,40.60
2023-01-08T09:29:47.809Z,34.95
2023-01-08T09:32:22.551Z,31.13
2023-01-08T09:34:55.109Z,34.97
2023-01-08T09:37:25.658Z,49.28
2023-01-08T09:40:02.295Z,37.15
2023-01-08T09:42:36.069Z,35.85
2023-01-08T09:45:16.599Z,31.15
2023-01-08T09:47:51.901Z,38.38
2023-01-08T09:50:22.854Z,36.78
2023-01-08T09:52:53.057Z,40.30
2023-01-08T09:55:25.302Z,41.67
2023-01-08T09:57:56.303Z,46.05
2023-01-08T10:00:32.373Z,36.67
2023-01-08T10:03:07.681Z,45.72
2023-01-08T10:05:39.839Z,40.17
2023-01-08T10:08:13.036Z,39.28
2023-01-08T10:10:47.562Z,37.47
2023-01-08T10:13:20.564Z,34.35
2023-01-08T10:15:51.659Z,35.50
2023-01-08T10:18:28.678Z,46.67
2023-01-08T10:20:59.060Z,38.92
2023-01-08T10:23:30.061Z,35.78
2023-01-08T10:26:05.146Z,45.13
2023-01-08T10:28:38.203Z,35.17
2023-01-08T10:31:12.521Z,36.70
2023-01-08T10:33:47.684Z,41.00
2023-01-08T10:36:20.399Z,33.58
2023-01-08T10:38:54.715Z,29.38
2023-01-08T10:41:29.485Z,30.30
2023-01-08T10:44:05.734Z,27.75
2023-01-08T10:46:45.192Z,26.73
2023-01-08T10:49:27.109Z,35.05
2023-01-08T10:52:00.657Z,31.75
2023-01-08T10:54:36.919Z,33.92
2023-01-08T10:57:22.830Z,40.95
2023-01-08T10:59:52.970Z,36.47
2023-01-08T11:02:39.679Z,33.95
2023-01-08T11:05:13.226Z,36.70
2023-01-08T11:07:44.437Z,29.55
2023-01-08T11:10:26.210Z,27.42
2023-01-08T11:13:04.117Z,32.85
2023-01-08T11:15:37.910Z,36.03
2023-01-08T11:21:19.287Z,27.60
2023-01-08T11:23:49.532Z,28.52
2023-01-08T11:26:24.087Z,30.90
2023-01-08T11:28:59.946Z,29.15
2023-01-08T11:31:38.423Z,27.63
2023-01-08T11:34:18.639Z,29.27
2023-01-08T11:37:00.102Z,33.25
2023-01-08T11:39:30.457Z,29.85
2023-01-08T11:42:17.356Z,26.75
2023-01-08T11:45:01.074Z,29.10
2023-01-08T11:47:54.834Z,32.38
2023-01-08T11:50:30.900Z,30.65
2023-01-08T11:53:17.912Z,35.90
2023-01-08T11:55:57.934Z,27.90
2023-01-08T11:58:37.750Z,26.70
2023-01-08T12:01:30.067Z,29.42
2023-01-08T12:04:17.320Z,29.45
2023-01-08T12:06:56.861Z,30.27
2023-01-08T12:09:41.682Z,36.45
2023-01-08T12:12:26.328Z,34.90
2023-01-08T12:15:13.130Z,33.50
2023-01-08T12:18:11.068Z,41.70
2023-01-08T12:20:50.627Z,35.70
2023-01-08T12:23:37.467Z,28.33
2023-01-08T12:26:27.188Z,28.05
2023-01-08T12:29:30.749Z,30.10
2023-01-08T12:32:30.357Z,31.63
2023-01-08T12:35:08.928Z,28.27
2023-01-08T12:37:44.855Z,28.33
2023-01-08T12:40:21.967Z,26.90
2023-01-08T12:43:01.275Z,23.95
2023-01-08T12:45:34.125Z,27.55
2023-01-08T12:48:10.968Z,31.25
2023-01-08T12:51:00.694Z,27.73
2023-01-08T12:53:40.541Z,26.02
2023-01-08T12:56:18.315Z,28.60
2023-01-08T12:59:21.747Z,28.63
2023-01-08T13:02:01.556Z,20.60
2023-01-08T13:04:41.623Z,23.60
2023-01-08T13:07:19.844Z,26.17
2023-01-08T13:10:00.331Z,28.90
2023-01-08T13:12:38.422Z,32.33
2023-01-08T13:15:23.386Z,27.27
2023-01-08T13:18:01.534Z,22.83
2023-01-08T13:20:35.075Z,27.63
2023-01-08T13:23:10.279Z,24.02
2023-01-08T13:25:42.679Z,23.98
2023-01-08T13:28:43.784Z,28.05
2023-01-08T13:31:31.880Z,27.88
2023-01-08T13:34:02.117Z,20.90
2023-01-08T13:36:36.540Z,28.70
2023-01-08T13:39:25.132Z,32.20
2023-01-08T13:42:36.729Z,32.28
2023-01-08T13:45:19.179Z,26.30
2023-01-08T13:47:52.693Z,30.80
2023-01-08T13:50:28.312Z,29.98
2023-01-08T13:53:01.708Z,24.00
2023-01-08T13:55:35.300Z,26.33
2023-01-08T13:58:11.576Z,25.02
2023-01-08T14:00:50.059Z,29.75
2023-01-08T14:03:32.771Z,27.40
2023-01-08T14:06:14.027Z,26.13
2023-01-08T14:08:53.468Z,24.80
2023-01-08T14:11:26.945Z,28.40
2023-01-08T14:13:57.414Z,22.45
2023-01-08T14:16:28.139Z,22.73
2023-01-08T14:19:07.669Z,23.90
2023-01-08T14:21:37.991Z,21.80
2023-01-08T14:24:10.088Z,25.08
2023-01-08T14:26:41.583Z,29.95
2023-01-08T14:29:18.123Z,27.88
2023-01-08T14:31:53.177Z,19.20
2023-01-08T14:34:28.906Z,21.80
2023-01-08T14:36:59.821Z,21.20
2023-01-08T14:39:38.540Z,29.73
2023-01-08T14:42:23.998Z,20.42
2023-01-08T14:44:57.793Z,18.52
2023-01-08T14:50:03.587Z,23.88
2023-01-08T14:52:33.811Z,14.88
2023-01-08T14:55:08.653Z,19.88
2023-01-08T14:57:39.993Z,14.52
2023-01-08T15:00:19.028Z,16.80
2023-01-08T15:02:50.692Z,13.07
2023-01-08T15:05:29.933Z,16.48
2023-01-08T15:08:03.282Z,14.95
2023-01-08T15:10:39.786Z,20.52
2023-01-08T15:13:26.234Z,19.20
2023-01-08T15:16:03.792Z,16.67
2023-01-08T15:18:39.606Z,20.92
2023-01-08T15:21:15.258Z,40.50
2023-01-08T15:23:50.746Z,27.25
2023-01-08T15:26:28.969Z,48.38
2023-01-08T15:29:01.520Z,19.02
2023-01-08T15:31:34.010Z,17.42
2023-01-08T15:34:04.410Z,19.63
2023-01-08T15:36:37.034Z,18.25
2023-01-08T15:39:07.936Z,18.95
2023-01-08T15:41:52.291Z,17.67
2023-01-08T15:44:22.373Z,16.33
2023-01-08T15:46:52.867Z,20.20
2023-01-08T15:49:23.784Z,14.82
2023-01-08T15:51:56.653Z,17.70
2023-01-08T15:54:40.298Z,15.77
2023-01-08T15:59:46.218Z,17.38
2023-01-08T16:02:22.798Z,17.17
2023-01-08T16:04:57.983Z,17.92
2023-01-08T16:07:30.841Z,19.67
2023-01-08T16:10:09.235Z,18.00
2023-01-08T16:12:41.440Z,20.77
2023-01-08T16:15:14.503Z,17.30
2023-01-08T16:17:45.992Z,16.08
2023-01-08T16:20:23.344Z,17.23
2023-01-08T16:22:57.924Z,17.17
2023-01-08T16:25:28.054Z,19.70
2023-01-08T16:27:59.222Z,23.27
2023-01-08T16:30:31.964Z,18.25
2023-01-08T16:33:02.051Z,21.63
2023-01-08T16:35:32.109Z,18.48
2023-01-08T16:38:05.007Z,21.90
2023-01-08T16:40:35.035Z,17.07
2023-01-08T16:43:05.128Z,20.63
2023-01-08T16:45:35.654Z,20.40
2023-01-08T16:48:06.269Z,24.42
2023-01-08T16:50:38.889Z,21.17
2023-01-08T16:53:11.848Z,22.40
2023-01-08T16:55:42.643Z,20.38
2023-01-08T16:58:14.947Z,22.00
2023-01-08T17:00:45.836Z,23.13
2023-01-08T17:03:17.759Z,20.55
2023-01-08T17:05:48.012Z,25.95
2023-01-08T17:08:21.019Z,19.05
2023-01-08T17:10:51.456Z,18.23
2023-01-08T17:13:21.484Z,18.27
2023-01-08T17:15:53.321Z,22.95
2023-01-08T17:18:23.466Z,19.92
2023-01-08T17:20:56.362Z,22.70
2023-01-08T17:23:30.008Z,28.83
2023-01-08T17:26:04.221Z,21.30
2023-01-08T17:28:35.319Z,23.55
2023-01-08T17:31:06.656Z,18.75
2023-01-08T17:33:37.920Z,19.35
2023-01-08T17:36:13.627Z,25.60
2023-01-08T17:38:50.840Z,28.45
2023-01-08T17:41:33.963Z,23.42
2023-01-08T17:44:06.958Z,21.35
2023-01-08T17:46:38.698Z,30.52
2023-01-08T17:49:11.711Z,19.67
2023-01-08T17:51:41.902Z,27.02
2023-01-08T17:54:19.215Z,22.60
2023-01-08T17:56:49.356Z,25.35
2023-01-08T17:59:23.521Z,27.45
2023-01-08T18:01:55.689Z,24.67
2023-01-08T18:04:26.107Z,30.60
2023-01-08T18:06:56.310Z,34.17
2023-01-08T18:09:29.095Z,25.00
2023-01-08T18:11:59.245Z,27.45
2023-01-08T18:14:29.970Z,24.85
2023-01-08T18:17:08.870Z,27.73
2023-01-08T18:19:40.149Z,23.48
2023-01-08T18:22:17.970Z,27.05
2023-01-08T18:24:55.843Z,24.40
2023-01-08T18:27:26.191Z,28.20
2023-01-08T18:29:56.957Z,28.17
2023-01-08T18:32:27.047Z,38.10
2023-01-08T18:34:57.146Z,28.00
2023-01-08T18:37:27.220Z,26.95
2023-01-08T18:39:59.899Z,35.72
2023-01-08T18:42:31.056Z,24.95
2023-01-08T18:45:02.668Z,28.60
2023-01-08T18:47:33.285Z,23.42
2023-01-08T18:50:04.007Z,27.10
2023-01-08T18:52:36.919Z,36.40
2023-01-08T18:55:13.682Z,27.40
2023-01-08T18:57:44.868Z,28.50
2023-01-08T19:00:21.991Z,26.02
2023-01-08T19:02:53.299Z,27.92
2023-01-08T19:05:24.863Z,29.30
2023-01-08T19:07:55.660Z,29.85
2023-01-08T19:10:28.361Z,29.27
2023-01-08T19:13:06.795Z,33.03
2023-01-08T19:15:38.406Z,26.75
2023-01-08T19:18:09.225Z,31.05
2023-01-08T19:20:43.480Z,30.92
2023-01-08T19:23:17.082Z,27.17
2023-01-08T19:25:51.987Z,31.08
2023-01-08T19:28:24.434Z,36.75
2023-01-08T19:31:06.883Z,43.58
2023-01-08T19:33:37.085Z,31.25
2023-01-08T19:36:14.091Z,30.50
2023-01-08T19:38:45.745Z,32.75
2023-01-08T19:41:34.729Z,33.05
2023-01-08T19:44:07.952Z,35.15
2023-01-08T19:46:40.306Z,41.28
2023-01-08T19:49:14.327Z,44.45
2023-01-08T19:51:51.153Z,33.40
2023-01-08T19:54:23.852Z,44.25
2023-01-08T19:56:57.355Z,37.00
2023-01-08T19:59:27.672Z,41.45
2023-01-08T20:01:59.768Z,37.75
2023-01-08T20:04:30.335Z,34.72
2023-01-08T20:07:01.120Z,35.55
2023-01-08T20:09:33.094Z,33.38
2023-01-08T20:12:06.064Z,35.80
2023-01-08T20:14:37.059Z,34.83
2023-01-08T20:17:07.254Z,36.83
2023-01-08T20:19:39.715Z,35.15
2023-01-08T20:22:15.368Z,35.85
2023-01-08T20:24:46.485Z,34.40
2023-01-08T20:27:20.913Z,35.38
2023-01-08T20:29:52.964Z,34.10
2023-01-08T20:32:26.544Z,38.50
2023-01-08T20:34:58.535Z,36.70
2023-01-08T20:37:37.588Z,35.38
2023-01-08T20:40:11.732Z,44.50
2023-01-08T20:42:46.412Z,41.45
2023-01-08T20:45:21.007Z,36.17
2023-01-08T20:47:52.083Z,45.85
2023-01-08T20:50:22.948Z,63.33
2023-01-08T20:52:53.543Z,81.72
2023-01-08T20:55:26.006Z,230.13
2023-01-08T20:57:58.719Z,55.13
2023-01-08T21:00:29.060Z,44.13
2023-01-08T21:03:02.231Z,42.40
2023-01-08T21:05:33.777Z,47.58
2023-01-08T21:08:04.092Z,44.60
2023-01-08T21:10:34.296Z,41.95
2023-01-08T21:13:06.950Z,36.95
2023-01-08T21:15:39.596Z,55.25
2023-01-08T21:18:09.741Z,45.10
2023-01-08T21:20:39.830Z,39.80
2023-01-08T21:23:09.889Z,45.38
2023-01-08T21:25:39.961Z,41.08
2023-01-08T21:28:12.593Z,39.97
2023-01-08T21:30:43.683Z,41.97
2023-01-08T21:33:13.819Z,48.10
2023-01-08T21:35:43.906Z,42.17
2023-01-08T21:38:15.131Z,42.58
2023-01-08T21:40:45.208Z,42.65
2023-01-08T21:43:30.211Z,37.40
2023-01-08T21:46:05.331Z,36.78
2023-01-08T21:48:35.435Z,37.20
2023-01-08T21:51:05.498Z,37.78
2023-01-08T21:53:35.403Z,38.05
2023-01-08T21:56:08.097Z,40.35
2023-01-08T21:58:40.756Z,44.15
2023-01-08T22:01:12.388Z,39.03
2023-01-08T22:03:43.961Z,44.55
2023-01-08T22:06:14.076Z,46.35
2023-01-08T22:08:45.333Z,39.08
2023-01-08T22:11:15.377Z,39.25
2023-01-08T22:13:48.419Z,40.17
2023-01-08T22:16:18.795Z,36.20
2023-01-08T22:18:49.068Z,34.20
2023-01-08T22:21:20.422Z,34.28
2023-01-08T22:23:50.685Z,37.35
2023-01-08T22:26:21.395Z,33.28
2023-01-08T22:28:56.549Z,39.67
2023-01-08T22:31:26.895Z,37.05
2023-01-08T22:33:57.243Z,37.20
2023-01-08T22:36:28.037Z,35.85
2023-01-08T22:38:58.300Z,40.10
2023-01-08T22:41:28.598Z,40.63
2023-01-08T22:44:01.353Z,34.90
2023-01-08T22:46:32.434Z,33.15
2023-01-08T22:49:02.520Z,34.65
2023-01-08T22:51:32.676Z,30.60
2023-01-08T22:54:02.762Z,32.58
2023-01-08T22:56:32.833Z,34.58
2023-01-08T22:59:05.542Z,31.98
2023-01-08T23:01:35.766Z,31.55
2023-01-08T23:04:06.398Z,30.50
2023-01-08T23:06:36.963Z,28.73
2023-01-08T23:09:07.416Z,31.25
2023-01-08T23:11:37.501Z,26.30
2023-01-08T23:14:10.184Z,29.08
2023-01-08T23:16:40.331Z,33.03
2023-01-08T23:19:10.355Z,31.75
2023-01-08T23:21:40.966Z,26.50
2023-01-08T23:24:14.613Z,31.05
2023-01-08T23:26:45.439Z,24.45
2023-01-08T23:29:18.203Z,26.02
2023-01-08T23:31:49.137Z,26.02
2023-01-08T23:34:19.246Z,26.85
2023-01-08T23:36:49.630Z,24.90
2023-01-08T23:39:20.185Z,24.38
2023-01-08T23:41:50.484Z,25.13
2023-01-08T23:44:23.112Z,25.55
2023-01-08T23:46:53.214Z,23.88
2023-01-08T23:49:23.340Z,22.50
2023-01-08T23:51:53.408Z,28.40
2023-01-08T23:54:23.480Z,30.23
2023-01-08T23:56:53.603Z,25.25
2023-01-08T23:59:26.287Z,31.73
